Time;durP1;ratioP1;P1;durP2;ratioP2;P2;SDS_P1;SDS_P2;PMS_P1;PMS_P2;Temp;Humidity;BMP_temperature;BMP_pressure;BME280_temperature;BME280_humidity;BME280_pressure;Samples;Min_cycle;Max_cycle;Signal;HPM_P1;HPM_P2
2021/05/16 00:01:10;;;;;;;16.92;3.03;;;16.80;86.50;;;;;;5093082;28;20047;-68
2021/05/16 00:04:14;;;;;;;16.38;3.00;;;16.80;86.60;;;;;;5090927;28;20387;-68
2021/05/16 00:07:18;;;;;;;13.07;3.10;;;16.80;87.00;;;;;;5090893;28;20070;-68
2021/05/16 00:10:24;;;;;;;13.90;3.00;;;16.60;87.70;;;;;;5091027;28;20039;-67
2021/05/16 00:13:28;;;;;;;11.45;2.60;;;16.40;88.30;;;;;;5091721;28;20042;-68
2021/05/16 00:16:33;;;;;;;11.43;3.15;;;16.40;88.60;;;;;;5090970;28;20566;-68
2021/05/16 00:19:38;;;;;;;12.55;2.25;;;16.30;89.20;;;;;;5091618;28;20047;-68
2021/05/16 00:22:43;;;;;;;16.02;3.30;;;16.30;89.40;;;;;;5090454;28;20051;-68
2021/05/16 00:25:47;;;;;;;15.70;3.53;;;16.20;90.00;;;;;;5091252;28;20640;-68
2021/05/16 00:28:51;;;;;;;10.85;2.70;;;16.20;89.50;;;;;;5091470;28;20059;-68
2021/05/16 00:31:55;;;;;;;11.55;2.88;;;16.10;90.20;;;;;;5091617;28;20371;-68
2021/05/16 00:34:59;;;;;;;16.17;3.13;;;16.10;90.40;;;;;;5091053;28;20047;-68
2021/05/16 00:38:04;;;;;;;19.80;4.00;;;16.10;90.10;;;;;;5090976;28;20039;-67
2021/05/16 00:41:11;;;;;;;19.30;3.45;;;16.00;90.50;;;;;;5091237;28;20518;-68
2021/05/16 00:44:16;;;;;;;12.00;3.15;;;16.10;90.20;;;;;;5091193;28;20039;-68
2021/05/16 00:47:20;;;;;;;14.40;3.20;;;16.10;90.40;;;;;;5090217;28;20055;-67
2021/05/16 00:50:35;;;;;;;10.27;2.65;;;16.10;90.30;;;;;;5090839;28;20043;-68
2021/05/16 00:53:39;;;;;;;14.45;3.13;;;16.20;90.20;;;;;;5090459;28;20058;-67
2021/05/16 00:56:44;;;;;;;13.35;3.03;;;16.20;90.40;;;;;;5089933;28;20039;-67
2021/05/16 00:59:48;;;;;;;14.07;3.00;;;16.30;90.20;;;;;;5090424;28;20047;-68
2021/05/16 01:02:53;;;;;;;10.07;3.33;;;16.40;89.90;;;;;;5078629;28;20391;-68
2021/05/16 01:05:59;;;;;;;15.45;3.70;;;16.30;89.90;;;;;;5089869;28;20058;-68
2021/05/16 01:09:11;;;;;;;17.00;4.50;;;16.10;90.60;;;;;;5090562;28;20051;-68
2021/05/16 01:12:16;;;;;;;18.95;3.55;;;16.00;91.00;;;;;;5090015;28;20043;-68
2021/05/16 01:15:26;;;;;;;14.48;4.35;;;15.90;90.90;;;;;;5089880;28;20055;-68
2021/05/16 01:18:32;;;;;;;15.77;3.53;;;15.90;91.30;;;;;;5078739;28;20047;-68
2021/05/16 01:21:37;;;;;;;11.73;3.40;;;16.00;91.00;;;;;;5089836;28;20098;-68
2021/05/16 01:24:46;;;;;;;16.77;3.85;;;16.10;90.80;;;;;;5090937;28;20047;-69
2021/05/16 01:27:51;;;;;;;13.55;2.88;;;16.20;90.50;;;;;;5093329;28;20051;-68
2021/05/16 01:30:55;;;;;;;13.68;2.92;;;16.20;90.50;;;;;;5093964;28;20039;-69
2021/05/16 01:33:59;;;;;;;17.60;3.70;;;16.20;90.40;;;;;;5094412;28;20601;-69
2021/05/16 01:37:04;;;;;;;12.05;3.40;;;16.20;90.50;;;;;;5095027;28;20035;-68
2021/05/16 01:40:12;;;;;;;19.45;3.78;;;16.20;90.50;;;;;;5093853;28;20051;-68
2021/05/16 01:43:17;;;;;;;15.55;3.83;;;16.20;90.40;;;;;;5095276;28;20039;-69
2021/05/16 01:46:22;;;;;;;17.50;3.50;;;16.20;90.40;;;;;;5093926;28;20059;-68
2021/05/16 01:49:26;;;;;;;9.57;2.90;;;16.00;90.70;;;;;;5094925;28;20520;-68
2021/05/16 01:52:31;;;;;;;16.13;3.30;;;15.90;91.30;;;;;;5093902;28;20051;-70
2021/05/16 01:55:36;;;;;;;16.20;3.33;;;15.80;91.20;;;;;;5094809;28;20050;-70
2021/05/16 01:58:40;;;;;;;14.25;3.58;;;15.80;91.50;;;;;;5094663;28;20035;-68
2021/05/16 02:01:45;;;;;;;11.82;3.70;;;15.80;91.50;;;;;;5081971;28;20055;-68
2021/05/16 02:04:50;;;;;;;14.52;2.60;;;15.80;91.50;;;;;;5093335;28;20051;-67
2021/05/16 02:07:56;;;;;;;10.60;3.10;;;15.90;91.50;;;;;;5092766;28;20466;-67
2021/05/16 02:11:04;;;;;;;18.05;3.58;;;15.70;91.40;;;;;;5093053;28;20059;-67
2021/05/16 02:14:11;;;;;;;13.40;3.10;;;15.60;92.00;;;;;;5092896;28;20043;-67
2021/05/16 02:17:15;;;;;;;15.07;3.10;;;15.60;92.10;;;;;;5093745;28;20047;-67
2021/05/16 02:20:21;;;;;;;12.23;3.30;;;15.60;92.00;;;;;;5093579;28;20039;-68
2021/05/16 02:23:26;;;;;;;15.52;3.40;;;15.70;91.90;;;;;;5093116;28;20043;-67
2021/05/16 02:26:32;;;;;;;13.27;3.58;;;15.80;91.60;;;;;;5092899;28;20503;-68
2021/05/16 02:29:38;;;;;;;11.57;3.00;;;15.60;91.70;;;;;;5092994;28;20043;-67
2021/05/16 02:32:44;;;;;;;14.18;3.20;;;15.50;92.20;;;;;;5093055;28;20059;-69
2021/05/16 02:35:48;;;;;;;9.95;2.97;;;15.50;92.30;;;;;;5093573;28;20055;-68
2021/05/16 02:38:53;;;;;;;16.00;3.72;;;15.60;92.30;;;;;;5092156;28;20414;-69
2021/05/16 02:41:58;;;;;;;15.82;3.30;;;15.70;92.00;;;;;;5092619;28;20098;-68
2021/05/16 02:45:04;;;;;;;12.15;3.40;;;15.60;92.10;;;;;;5093481;28;20046;-68
2021/05/16 02:48:08;;;;;;;16.30;3.15;;;15.60;92.20;;;;;;5080710;28;20051;-68
2021/05/16 02:51:12;;;;;;;17.20;2.97;;;15.70;92.00;;;;;;5092532;28;20502;-68
2021/05/16 02:54:20;;;;;;;13.77;3.22;;;15.60;92.10;;;;;;5093049;28;20047;-69
2021/05/16 02:57:24;;;;;;;21.65;3.45;;;15.50;92.20;;;;;;5093197;28;20039;-68
2021/05/16 03:00:31;;;;;;;17.95;3.33;;;15.50;92.60;;;;;;5092304;28;20043;-68
2021/05/16 03:03:35;;;;;;;13.60;3.00;;;15.60;92.40;;;;;;5092646;28;20039;-67
2021/05/16 03:06:43;;;;;;;16.73;3.22;;;15.70;92.20;;;;;;5092874;28;20047;-68
2021/05/16 03:09:47;;;;;;;12.63;2.80;;;15.80;92.00;;;;;;5093105;28;20364;-68
2021/05/16 03:12:52;;;;;;;15.02;3.60;;;15.70;92.00;;;;;;5091887;28;20415;-68
2021/05/16 03:15:57;;;;;;;15.70;3.30;;;15.70;92.00;;;;;;5091945;28;20047;-68
2021/05/16 03:19:04;;;;;;;11.65;2.60;;;15.90;91.70;;;;;;5092940;28;20418;-69
2021/05/16 03:22:16;;;;;;;22.20;3.47;;;16.00;91.20;;;;;;5092169;28;20066;-69
2021/05/16 03:25:23;;;;;;;18.63;3.17;;;16.10;91.00;;;;;;5091603;28;20043;-68
2021/05/16 03:28:29;;;;;;;13.00;2.72;;;16.20;90.50;;;;;;5091542;28;20529;-68
2021/05/16 03:31:33;;;;;;;15.40;2.67;;;16.10;90.90;;;;;;5092507;28;20039;-68
2021/05/16 03:34:37;;;;;;;15.57;3.08;;;16.10;90.90;;;;;;5092061;28;20036;-68
2021/05/16 03:37:42;;;;;;;14.27;2.90;;;16.10;90.80;;;;;;5092224;28;20043;-68
2021/05/16 03:40:47;;;;;;;18.45;2.88;;;16.10;90.70;;;;;;5091391;28;20062;-68
2021/05/16 03:43:51;;;;;;;14.13;2.55;;;16.10;90.60;;;;;;5091180;28;20403;-69
2021/05/16 03:46:55;;;;;;;19.67;2.60;;;16.20;90.40;;;;;;5092036;28;20047;-68
2021/05/16 03:49:59;;;;;;;11.75;2.20;;;16.30;90.10;;;;;;5090969;28;20253;-69
2021/05/16 03:53:03;;;;;;;15.35;2.53;;;16.40;90.20;;;;;;5091066;28;20043;-69
2021/05/16 03:56:08;;;;;;;14.45;3.03;;;16.40;90.20;;;;;;5091925;28;20039;-68
2021/05/16 03:59:12;;;;;;;14.38;2.80;;;16.40;90.10;;;;;;5091925;28;20047;-68
2021/05/16 04:02:17;;;;;;;18.00;2.78;;;16.40;90.10;;;;;;5090987;28;20039;-68
2021/05/16 04:05:21;;;;;;;15.52;2.88;;;16.50;90.10;;;;;;5091520;28;20522;-67
2021/05/16 04:08:25;;;;;;;13.77;2.80;;;16.40;90.20;;;;;;5078968;28;20051;-67
2021/05/16 04:11:30;;;;;;;18.02;3.00;;;16.40;90.30;;;;;;5091346;28;20047;-67
2021/05/16 04:14:16;;;;;;;18.80;3.17;;;16.40;90.40;;;;;;5092110;28;20043;-67
2021/05/16 04:17:20;;;;;;;16.73;2.80;;;16.50;89.90;;;;;;5091609;28;20047;-67
2021/05/16 04:20:24;;;;;;;15.82;2.55;;;16.40;90.10;;;;;;5091707;28;20042;-67
2021/05/16 04:23:28;;;;;;;13.55;3.10;;;16.40;90.20;;;;;;5091598;28;20044;-68
2021/05/16 04:26:33;;;;;;;18.02;3.60;;;16.30;90.40;;;;;;5091451;28;20040;-68
2021/05/16 04:29:37;;;;;;;17.35;3.15;;;16.20;90.70;;;;;;5080983;28;20035;-68
2021/05/16 04:32:41;;;;;;;14.90;3.00;;;16.20;91.10;;;;;;5080546;28;20498;-69
2021/05/16 04:35:45;;;;;;;11.02;2.83;;;16.20;91.00;;;;;;5092602;28;20043;-69
2021/05/16 04:38:52;;;;;;;13.23;3.13;;;16.20;90.90;;;;;;5092023;28;20067;-68
2021/05/16 04:41:56;;;;;;;13.40;3.15;;;16.20;90.90;;;;;;5093643;28;20043;-68
2021/05/16 04:45:00;;;;;;;11.63;3.60;;;16.40;90.80;;;;;;5092569;28;20071;-67
2021/05/16 04:48:04;;;;;;;18.73;3.30;;;16.40;90.30;;;;;;5093375;28;20051;-69
2021/05/16 04:50:49;;;;;;;15.73;3.85;;;17.10;89.60;;;;;;5096590;28;20462;-67
2021/05/16 04:53:53;;;;;;;16.45;3.28;;;17.90;86.20;;;;;;5091454;28;20502;-65
2021/05/16 04:56:57;;;;;;;15.65;3.35;;;18.70;84.00;;;;;;5091336;28;20502;-65
2021/05/16 05:00:03;;;;;;;14.52;3.75;;;19.40;83.20;;;;;;5091410;28;20031;-64
2021/05/16 05:03:07;;;;;;;12.05;3.63;;;19.40;81.80;;;;;;5091262;28;20043;-65
2021/05/16 05:06:11;;;;;;;12.27;3.63;;;19.30;82.20;;;;;;5091164;28;20039;-64
2021/05/16 05:09:16;;;;;;;16.73;3.00;;;19.00;81.10;;;;;;5091303;28;20055;-65
2021/05/16 05:12:19;;;;;;;13.63;2.90;;;18.70;81.20;;;;;;5090259;28;20043;-65
2021/05/16 05:15:23;;;;;;;13.93;3.20;;;18.40;82.00;;;;;;5090863;28;20051;-65
2021/05/16 05:18:28;;;;;;;17.73;3.80;;;18.30;83.30;;;;;;5091368;28;20039;-65
2021/05/16 05:21:32;;;;;;;10.00;2.85;;;17.90;83.90;;;;;;5090944;28;20047;-65
2021/05/16 05:24:35;;;;;;;12.93;3.05;;;17.80;86.00;;;;;;5091237;28;20055;-64
2021/05/16 05:27:39;;;;;;;12.40;3.33;;;17.70;85.80;;;;;;5090906;28;20055;-64
2021/05/16 05:30:43;;;;;;;10.57;3.03;;;17.40;87.30;;;;;;5091175;28;20047;-66
2021/05/16 05:33:47;;;;;;;12.80;3.45;;;17.40;88.40;;;;;;5090998;28;20550;-64
2021/05/16 05:36:52;;;;;;;14.65;4.75;;;17.40;89.10;;;;;;5090623;28;20047;-65
2021/05/16 05:39:56;;;;;;;16.35;5.30;;;17.60;88.40;;;;;;5091041;28;20039;-65
2021/05/16 05:43:00;;;;;;;20.10;6.03;;;17.70;88.00;;;;;;5090160;28;20502;-65
2021/05/16 05:46:04;;;;;;;18.95;6.65;;;17.90;87.50;;;;;;5090529;28;20047;-64
2021/05/16 05:49:08;;;;;;;18.30;6.85;;;18.20;86.60;;;;;;5090883;28;20062;-64
2021/05/16 05:52:12;;;;;;;16.83;6.68;;;18.30;86.90;;;;;;5089789;28;20043;-65
2021/05/16 05:55:17;;;;;;;20.27;6.75;;;18.40;86.90;;;;;;5090962;28;20040;-64
2021/05/16 05:58:22;;;;;;;21.92;6.07;;;18.70;85.90;;;;;;5090994;28;20051;-64
2021/05/16 06:01:26;;;;;;;19.00;6.15;;;19.00;85.30;;;;;;5090925;28;20499;-64
2021/05/16 06:04:30;;;;;;;15.55;6.00;;;19.30;84.10;;;;;;5090746;28;20047;-65
2021/05/16 06:07:35;;;;;;;23.83;7.15;;;19.50;82.90;;;;;;5090455;28;20047;-64
2021/05/16 06:10:39;;;;;;;21.52;7.05;;;19.80;82.80;;;;;;5090604;28;20047;-64
2021/05/16 06:13:43;;;;;;;26.33;10.38;;;20.10;81.30;;;;;;5092884;28;20047;-66
2021/05/16 06:16:47;;;;;;;30.55;14.63;;;20.20;80.50;;;;;;5092710;28;20055;-65
2021/05/16 06:19:52;;;;;;;37.35;17.08;;;19.90;80.90;;;;;;5094567;28;20051;-65
2021/05/16 06:23:01;;;;;;;37.08;16.80;;;19.70;82.30;;;;;;5094205;28;20514;-65
2021/05/16 06:26:05;;;;;;;45.10;15.90;;;19.90;82.00;;;;;;5092913;28;20043;-64
2021/05/16 06:29:10;;;;;;;32.28;14.73;;;20.20;81.60;;;;;;5093789;28;20050;-64
2021/05/16 06:32:14;;;;;;;29.77;15.70;;;20.40;80.40;;;;;;5093948;28;20051;-64
2021/05/16 06:35:19;;;;;;;35.50;15.75;;;20.50;80.70;;;;;;5093369;28;20051;-63
2021/05/16 06:38:23;;;;;;;23.95;10.15;;;20.60;81.10;;;;;;5093781;28;20046;-64
2021/05/16 06:41:28;;;;;;;20.45;8.88;;;20.80;80.10;;;;;;5081175;28;20043;-63
2021/05/16 06:44:32;;;;;;;17.70;6.38;;;21.10;78.50;;;;;;5092652;28;20035;-64
2021/05/16 06:47:35;;;;;;;12.15;2.13;;;21.50;76.20;;;;;;5092787;28;20046;-63
2021/05/16 06:50:39;;;;;;;7.32;1.73;;;21.80;69.30;;;;;;5093558;28;20051;-62
2021/05/16 06:53:43;;;;;;;12.57;1.67;;;22.10;67.10;;;;;;5092909;28;20475;-62
2021/05/16 06:56:47;;;;;;;7.63;1.60;;;22.50;66.30;;;;;;5093198;28;20051;-63
2021/05/16 06:59:51;;;;;;;8.77;1.70;;;22.80;64.50;;;;;;5092738;28;20043;-62
2021/05/16 07:02:55;;;;;;;8.63;1.73;;;23.20;64.20;;;;;;5093456;28;20389;-63
2021/05/16 07:06:03;;;;;;;10.63;1.40;;;23.50;63.20;;;;;;5092842;28;20036;-65
2021/05/16 07:09:07;;;;;;;11.30;2.72;;;23.80;63.50;;;;;;5092755;28;20047;-64
2021/05/16 07:12:11;;;;;;;16.85;2.30;;;24.10;63.00;;;;;;5093206;28;20039;-63
2021/05/16 07:15:16;;;;;;;10.48;2.05;;;24.30;61.70;;;;;;5092866;28;20043;-64
2021/05/16 07:18:20;;;;;;;15.48;2.50;;;24.40;63.50;;;;;;5093219;28;20054;-64
2021/05/16 07:21:25;;;;;;;6.82;1.50;;;24.50;63.20;;;;;;5092940;28;20043;-64
2021/05/16 07:24:29;;;;;;;9.13;2.40;;;24.60;62.90;;;;;;5080269;28;20028;-65
2021/05/16 07:27:33;;;;;;;12.65;1.75;;;24.70;64.30;;;;;;5092694;28;20043;-64
2021/05/16 07:30:37;;;;;;;12.25;1.83;;;24.90;63.50;;;;;;5092641;28;20047;-63
2021/05/16 07:33:45;;;;;;;10.13;1.80;;;25.10;63.20;;;;;;5092740;28;20103;-65
2021/05/16 07:36:49;;;;;;;8.40;1.50;;;25.30;62.80;;;;;;5092626;28;20047;-63
2021/05/16 07:39:53;;;;;;;6.03;1.80;;;25.50;60.70;;;;;;5092742;28;20043;-64
2021/05/16 07:42:57;;;;;;;9.77;1.67;;;25.50;58.40;;;;;;5079921;28;20042;-64
2021/05/16 07:46:03;;;;;;;19.15;2.15;;;25.60;59.40;;;;;;5092586;28;20510;-62
2021/05/16 07:49:07;;;;;;;8.13;2.08;;;25.60;60.30;;;;;;5092363;28;20059;-64
2021/05/16 07:52:12;;;;;;;9.18;2.05;;;25.70;60.00;;;;;;5091452;28;20047;-64
2021/05/16 07:55:16;;;;;;;13.48;3.20;;;25.80;59.30;;;;;;5091910;28;20506;-64
2021/05/16 07:58:21;;;;;;;13.27;2.20;;;25.70;59.30;;;;;;5091404;28;20490;-63
2021/05/16 08:01:25;;;;;;;9.98;1.63;;;25.80;58.70;;;;;;5091318;28;20047;-64
2021/05/16 08:04:29;;;;;;;8.30;2.00;;;26.00;57.70;;;;;;5091186;28;20051;-64
2021/05/16 08:07:33;;;;;;;10.32;1.73;;;26.10;57.00;;;;;;5092292;28;20049;-63
2021/05/16 08:10:37;;;;;;;7.72;2.10;;;26.10;57.10;;;;;;5092158;28;20051;-65
2021/05/16 08:13:41;;;;;;;11.20;2.08;;;26.10;56.60;;;;;;5091074;28;20032;-63
2021/05/16 08:16:46;;;;;;;7.10;1.92;;;26.20;55.60;;;;;;5091745;28;20126;-63
2021/05/16 08:19:50;;;;;;;10.25;2.40;;;26.30;56.10;;;;;;5091885;28;20051;-65
2021/05/16 08:22:54;;;;;;;8.23;2.22;;;26.30;57.40;;;;;;5091110;28;20059;-64
2021/05/16 08:25:58;;;;;;;11.20;2.28;;;26.30;57.50;;;;;;5091941;28;20401;-65
2021/05/16 08:29:04;;;;;;;6.53;1.70;;;26.30;58.20;;;;;;5091544;28;20050;-63
2021/05/16 08:32:12;;;;;;;8.98;1.77;;;26.30;57.20;;;;;;5091516;28;20032;-64
2021/05/16 08:35:16;;;;;;;16.90;2.10;;;26.10;58.30;;;;;;5091225;28;20043;-63
2021/05/16 08:38:20;;;;;;;9.00;1.83;;;25.90;56.90;;;;;;5091469;28;20043;-64
2021/05/16 08:41:24;;;;;;;10.98;1.88;;;25.70;57.60;;;;;;5091673;28;20044;-64
2021/05/16 08:44:32;;;;;;;10.93;2.08;;;25.50;59.10;;;;;;5091681;28;20035;-64
2021/05/16 08:47:38;;;;;;;8.00;1.90;;;25.40;58.80;;;;;;5091585;28;20047;-63
2021/05/16 08:50:42;;;;;;;11.13;1.90;;;25.50;59.60;;;;;;5091635;28;20047;-65
2021/05/16 08:53:46;;;;;;;11.15;2.42;;;25.50;60.30;;;;;;5091413;28;20042;-64
2021/05/16 08:56:55;;;;;;;16.42;2.25;;;25.50;59.70;;;;;;5091558;28;20534;-64
2021/05/16 09:00:10;;;;;;;9.07;1.90;;;25.50;60.00;;;;;;5090317;28;20043;-65
2021/05/16 09:03:18;;;;;;;10.18;2.13;;;25.50;60.50;;;;;;5091125;28;20129;-64
2021/05/16 09:06:33;;;;;;;8.55;1.80;;;25.60;60.20;;;;;;5090782;28;20043;-64
2021/05/16 09:09:41;;;;;;;8.55;1.85;;;25.60;59.40;;;;;;5090393;28;20130;-64
2021/05/16 09:12:45;;;;;;;8.18;1.80;;;25.50;60.10;;;;;;5091032;28;20050;-65
2021/05/16 09:16:16;;;;;;;6.78;2.10;;;25.30;60.80;;;;;;5090927;28;20399;-64
2021/05/16 09:19:22;;;;;;;12.68;2.85;;;25.20;60.70;;;;;;5090137;28;20028;-66
2021/05/16 09:22:49;;;;;;;9.20;1.92;;;25.10;60.40;;;;;;5090073;28;20055;-63
2021/05/16 09:26:11;;;;;;;13.48;2.65;;;25.00;61.20;;;;;;5090934;28;20400;-64
2021/05/16 09:29:18;;;;;;;;;;;24.90;62.70;;;;;;5091196;28;20055;-64
2021/05/16 09:32:26;;;;;;;11.85;2.10;;;24.70;63.40;;;;;;5090958;28;20283;-64
2021/05/16 09:35:30;;;;;;;9.23;1.88;;;24.50;64.60;;;;;;5090052;28;20051;-64
2021/05/16 09:38:35;;;;;;;19.67;2.35;;;24.40;64.00;;;;;;5090022;28;20051;-64
2021/05/16 09:42:04;;;;;;;9.70;1.73;;;24.30;64.30;;;;;;5090629;28;20043;-64
2021/05/16 09:45:08;;;;;;;16.40;3.05;;;24.30;63.20;;;;;;5089811;28;20032;-64
2021/05/16 09:48:41;;;;;;;13.90;2.60;;;24.10;64.10;;;;;;5092143;28;20051;-64
2021/05/16 09:51:45;;;;;;;11.60;3.22;;;24.10;64.30;;;;;;5094705;28;20039;-64
2021/05/16 09:54:56;;;;;;;11.57;2.08;;;24.10;65.20;;;;;;5094562;28;20051;-64
2021/05/16 09:58:00;;;;;;;16.55;3.30;;;24.00;63.80;;;;;;5094155;28;20406;-65
2021/05/16 10:01:04;;;;;;;9.93;2.25;;;24.00;65.50;;;;;;5094682;28;20051;-64
2021/05/16 10:04:08;;;;;;;12.93;2.85;;;24.00;65.80;;;;;;5094339;28;20391;-64
2021/05/16 10:07:13;;;;;;;12.65;2.55;;;24.10;65.70;;;;;;5094754;28;20043;-64
2021/05/16 10:10:17;;;;;;;14.48;3.03;;;24.10;65.40;;;;;;5094483;28;20403;-64
2021/05/16 10:13:24;;;;;;;13.98;2.70;;;24.20;65.30;;;;;;5094209;28;20039;-64
2021/05/16 10:16:38;;;;;;;9.85;2.67;;;24.30;65.10;;;;;;5093928;28;20059;-65
2021/05/16 10:19:44;;;;;;;10.98;3.00;;;24.50;65.40;;;;;;5093736;28;20036;-65
2021/05/16 10:23:03;;;;;;;13.30;2.55;;;24.60;65.70;;;;;;5094195;28;20067;-66
2021/05/16 10:26:18;;;;;;;12.88;3.90;;;24.60;65.30;;;;;;5093859;28;20043;-65
2021/05/16 10:29:24;;;;;;;13.55;3.00;;;24.70;64.80;;;;;;5094190;28;20055;-64
2021/05/16 10:32:41;;;;;;;13.05;3.08;;;24.80;65.00;;;;;;5093357;28;20399;-65
2021/05/16 10:35:49;;;;;;;11.52;2.63;;;25.00;64.70;;;;;;5093977;28;20055;-64
2021/05/16 10:38:53;;;;;;;10.43;2.03;;;25.10;64.10;;;;;;5093389;28;20062;-66
2021/05/16 10:42:17;;;;;;;14.20;2.33;;;25.10;63.30;;;;;;5093954;28;20043;-65
2021/05/16 10:45:34;;;;;;;16.10;2.55;;;25.00;64.50;;;;;;5092377;28;20495;-65
2021/05/16 10:48:39;;;;;;;11.40;1.95;;;25.00;65.30;;;;;;5094570;28;20051;-67
2021/05/16 10:51:49;;;;;;;10.02;2.65;;;25.10;64.60;;;;;;5094653;28;20047;-68
2021/05/16 10:54:56;;;;;;;10.18;2.20;;;25.10;64.70;;;;;;5094559;28;20043;-66
2021/05/16 10:58:03;;;;;;;7.72;1.83;;;25.10;63.60;;;;;;5094383;28;20102;-65
2021/05/16 11:01:18;;;;;;;15.13;3.00;;;25.10;62.60;;;;;;5094309;28;20032;-67
2021/05/16 11:04:46;;;;;;;10.85;2.33;;;25.20;64.10;;;;;;5093851;28;20055;-66
2021/05/16 11:07:53;;;;;;;6.60;2.38;;;25.30;63.40;;;;;;5094069;28;20043;-66
2021/05/16 11:10:59;;;;;;;12.75;1.85;;;25.20;63.90;;;;;;5094140;28;20032;-66
2021/05/16 11:14:19;;;;;;;9.93;2.50;;;25.10;63.60;;;;;;5093129;28;20051;-66
2021/05/16 11:17:27;;;;;;;7.77;1.33;;;25.10;62.90;;;;;;5094099;28;20059;-65
2021/05/16 11:20:34;;;;;;;10.90;2.03;;;25.00;60.50;;;;;;5093584;28;20419;-66
2021/05/16 11:23:40;;;;;;;13.88;2.08;;;24.90;60.90;;;;;;5093395;28;20047;-67
2021/05/16 11:26:44;;;;;;;12.30;2.00;;;24.90;62.80;;;;;;5093873;28;20043;-66
2021/05/16 11:29:58;;;;;;;7.15;2.70;;;24.70;61.60;;;;;;5093090;28;20051;-67
2021/05/16 11:33:03;;;;;;;8.73;3.05;;;24.80;62.30;;;;;;5092489;28;20047;-68
2021/05/16 11:36:10;;;;;;;9.02;3.13;;;24.80;62.30;;;;;;5093035;28;20040;-67
2021/05/16 11:39:21;;;;;;;6.78;1.85;;;24.90;58.60;;;;;;5092755;28;20048;-67
2021/05/16 11:42:34;;;;;;;11.10;2.45;;;24.90;60.70;;;;;;5092517;28;20031;-65
2021/05/16 11:45:41;;;;;;;7.60;2.05;;;24.90;61.60;;;;;;5093009;28;20047;-67
2021/05/16 11:48:50;;;;;;;8.80;2.55;;;25.00;61.80;;;;;;5092652;28;20059;-66
2021/05/16 11:52:04;;;;;;;8.70;2.72;;;25.00;61.70;;;;;;5092017;28;20028;-65
2021/05/16 11:55:11;;;;;;;8.00;2.83;;;25.00;61.90;;;;;;5092622;28;20048;-66
2021/05/16 11:58:16;;;;;;;7.85;2.20;;;25.00;60.80;;;;;;5092670;28;20044;-66
2021/05/16 12:01:24;;;;;;;7.43;2.50;;;25.10;61.60;;;;;;5092747;28;20044;-66
2021/05/16 12:04:08;;;;;;;11.95;3.17;;;25.10;62.20;;;;;;5109238;27;20391;-66
2021/05/16 12:07:13;;;;;;;13.88;2.90;;;25.20;62.90;;;;;;5109469;28;20032;-65
2021/05/16 12:10:21;;;;;;;8.35;2.58;;;25.10;63.90;;;;;;5109317;28;20039;-66
2021/05/16 12:13:26;;;;;;;9.23;3.33;;;25.10;63.70;;;;;;5109394;28;20032;-67
2021/05/16 12:16:31;;;;;;;11.10;5.03;;;25.10;64.70;;;;;;5108886;28;20036;-65
2021/05/16 12:19:37;;;;;;;12.00;3.70;;;25.10;65.30;;;;;;5108965;28;20036;-68
2021/05/16 12:22:42;;;;;;;13.43;2.85;;;25.10;65.10;;;;;;5108684;28;20055;-66
2021/05/16 12:25:46;;;;;;;8.75;2.05;;;25.10;64.50;;;;;;5108988;28;20513;-66
2021/05/16 12:28:51;;;;;;;13.18;6.18;;;25.00;64.40;;;;;;5108641;28;20043;-65
2021/05/16 12:31:56;;;;;;;15.45;3.60;;;24.90;64.90;;;;;;5108384;28;20047;-66
2021/05/16 12:35:02;;;;;;;15.93;3.10;;;24.90;65.40;;;;;;5108783;28;20367;-69
2021/05/16 12:38:11;;;;;;;12.63;3.00;;;24.90;65.80;;;;;;5108663;28;20035;-66
2021/05/16 12:41:18;;;;;;;11.32;2.42;;;24.80;65.70;;;;;;5108771;28;20039;-64
2021/05/16 12:44:24;;;;;;;11.90;2.90;;;24.80;65.10;;;;;;5107910;28;20047;-67
2021/05/16 12:47:29;;;;;;;10.40;2.50;;;24.70;64.70;;;;;;5108353;28;20035;-67
2021/05/16 12:50:50;;;;;;;8.15;1.77;;;24.70;64.40;;;;;;5108224;28;20047;-65
2021/05/16 12:54:18;;;;;;;11.63;1.77;;;24.60;61.70;;;;;;5108047;28;20036;-68
2021/05/16 12:57:43;;;;;;;11.63;2.00;;;24.60;56.20;;;;;;5108154;28;20285;-65
2021/05/16 13:00:55;;;;;;;5.22;1.77;;;24.60;55.40;;;;;;5106699;28;20109;-63
2021/05/16 13:04:01;;;;;;;7.22;1.67;;;24.60;55.80;;;;;;5106753;28;20052;-63
2021/05/16 13:07:09;;;;;;;6.00;1.60;;;24.60;54.70;;;;;;5107915;28;20032;-64
2021/05/16 13:10:47;;;;;;;6.90;1.38;;;24.70;55.20;;;;;;5107163;28;20039;-65
2021/05/16 13:13:56;;;;;;;11.07;2.25;;;24.80;54.00;;;;;;5101594;28;20191;-64
2021/05/16 13:17:19;;;;;;;10.80;3.33;;;24.80;54.30;;;;;;5093720;28;20051;-64
2021/05/16 13:20:29;;;;;;;11.93;3.15;;;24.80;55.90;;;;;;5093579;28;20051;-64
2021/05/16 13:23:34;;;;;;;9.13;1.38;;;24.80;55.20;;;;;;5093599;28;20063;-64
2021/05/16 13:26:38;;;;;;;10.13;2.17;;;24.60;54.50;;;;;;5093367;28;20036;-64
2021/05/16 13:29:50;;;;;;;7.63;1.38;;;24.50;54.90;;;;;;5093627;28;20051;-64
2021/05/16 13:32:54;;;;;;;8.98;1.33;;;24.40;54.70;;;;;;5093493;28;20499;-64
2021/05/16 13:36:02;;;;;;;8.27;1.67;;;24.30;54.60;;;;;;5093531;28;20040;-63
2021/05/16 13:39:07;;;;;;;8.27;1.38;;;24.20;54.10;;;;;;5093652;28;20036;-64
2021/05/16 13:42:11;;;;;;;4.75;1.10;;;24.10;55.30;;;;;;5093571;28;20390;-64
2021/05/16 13:45:15;;;;;;;5.10;1.40;;;24.10;55.50;;;;;;5093178;28;20040;-64
2021/05/16 13:48:19;;;;;;;6.60;1.50;;;24.10;56.00;;;;;;5093237;28;20392;-63
2021/05/16 13:51:24;;;;;;;4.38;1.20;;;24.00;55.50;;;;;;5092705;28;20044;-63
2021/05/16 13:54:31;;;;;;;11.63;1.73;;;23.90;56.40;;;;;;5093224;28;20047;-64
2021/05/16 13:57:35;;;;;;;14.88;2.35;;;24.00;59.60;;;;;;5093295;28;20067;-64
2021/05/16 14:00:40;;;;;;;11.68;2.25;;;23.90;62.70;;;;;;5093012;28;20043;-64
2021/05/16 14:03:44;;;;;;;10.07;1.77;;;23.80;62.90;;;;;;5092583;28;20161;-64
2021/05/16 14:06:48;;;;;;;10.82;1.77;;;23.70;61.70;;;;;;5092754;28;20043;-63
2021/05/16 14:09:52;;;;;;;8.40;1.45;;;23.60;59.30;;;;;;5092067;28;20043;-63
2021/05/16 14:12:56;;;;;;;11.90;2.22;;;23.60;60.40;;;;;;5092808;28;20375;-64
2021/05/16 14:16:00;;;;;;;7.80;1.85;;;23.50;60.90;;;;;;5092532;28;20067;-64
2021/05/16 14:19:07;;;;;;;8.07;2.28;;;23.50;61.20;;;;;;5092827;28;20032;-65
2021/05/16 14:22:12;;;;;;;10.27;1.83;;;23.50;61.60;;;;;;5080468;28;20040;-63
2021/05/16 14:25:16;;;;;;;7.72;1.52;;;23.50;60.60;;;;;;5091602;28;20047;-63
2021/05/16 14:28:19;;;;;;;9.00;1.52;;;23.40;60.80;;;;;;5092402;28;20036;-63
2021/05/16 14:31:23;;;;;;;12.00;1.83;;;23.40;61.20;;;;;;5091958;28;20048;-64
2021/05/16 14:34:28;;;;;;;9.52;2.03;;;23.40;63.30;;;;;;5092236;28;20059;-64
2021/05/16 14:37:32;;;;;;;7.43;1.40;;;23.30;61.80;;;;;;5092600;28;20365;-64
2021/05/16 14:40:36;;;;;;;8.02;2.75;;;23.20;61.60;;;;;;5092130;28;20380;-63
2021/05/16 14:43:40;;;;;;;11.63;1.90;;;23.20;63.40;;;;;;5092169;28;20376;-63
2021/05/16 14:46:46;;;;;;;8.65;1.70;;;23.10;63.30;;;;;;5092146;28;20055;-63
2021/05/16 14:49:50;;;;;;;10.18;2.13;;;23.20;62.00;;;;;;5092006;28;20044;-63
2021/05/16 14:52:54;;;;;;;21.55;3.47;;;23.10;62.80;;;;;;5091595;28;20047;-63
2021/05/16 14:55:58;;;;;;;11.85;1.92;;;23.10;63.70;;;;;;5091993;28;20047;-65
2021/05/16 14:59:04;;;;;;;15.02;2.42;;;23.10;63.30;;;;;;5091338;28;20510;-63
2021/05/16 15:02:08;;;;;;;16.15;2.28;;;23.10;65.30;;;;;;5090728;28;20399;-64
2021/05/16 15:05:14;;;;;;;11.38;2.20;;;23.00;64.80;;;;;;5091616;28;20047;-64
2021/05/16 15:08:18;;;;;;;16.75;2.58;;;22.90;64.80;;;;;;5091169;28;20051;-63
2021/05/16 15:11:23;;;;;;;16.80;2.60;;;22.90;67.60;;;;;;5092023;28;20391;-63
2021/05/16 15:14:27;;;;;;;11.95;2.67;;;22.90;68.40;;;;;;5090555;28;20043;-62
2021/05/16 15:17:31;;;;;;;10.15;2.20;;;22.90;69.40;;;;;;5091882;28;20047;-63
2021/05/16 15:20:35;;;;;;;12.35;2.03;;;23.00;68.80;;;;;;5091595;28;20039;-64
2021/05/16 15:23:42;;;;;;;7.72;1.70;;;23.00;69.10;;;;;;5091027;28;20070;-64
2021/05/16 15:26:46;;;;;;;13.68;2.20;;;23.10;68.90;;;;;;5090602;28;20448;-63
2021/05/16 15:29:50;;;;;;;8.73;1.52;;;23.10;67.20;;;;;;5091628;28;20047;-62
2021/05/16 15:32:53;;;;;;;8.68;2.15;;;23.10;65.00;;;;;;5090820;28;20404;-63
2021/05/16 15:35:59;;;;;;;14.57;2.83;;;23.10;65.20;;;;;;5090942;28;20028;-63
2021/05/16 15:39:05;;;;;;;13.82;2.17;;;23.00;65.10;;;;;;5091235;28;20043;-65
2021/05/16 15:42:09;;;;;;;12.20;2.08;;;23.00;64.80;;;;;;5090910;28;20043;-64
2021/05/16 15:45:13;;;;;;;11.63;1.75;;;22.90;63.30;;;;;;5091137;28;20043;-63
2021/05/16 15:48:18;;;;;;;12.57;1.65;;;22.90;64.00;;;;;;5090337;28;20043;-63
2021/05/16 15:51:22;;;;;;;11.77;1.60;;;22.80;63.40;;;;;;5091111;28;20039;-64
2021/05/16 15:54:26;;;;;;;12.18;1.83;;;22.80;63.80;;;;;;5090998;28;20035;-63
2021/05/16 15:57:30;;;;;;;12.50;1.80;;;22.70;65.00;;;;;;5090886;28;20051;-65